Aviation Digital Data Service (ADDS)

Output produced by METARs form (0144 UTC 21 September 2018)
found at http://aviationweather.gov/metar/data/
 
METAR text: KLXV 210053Z AUTO 29012KT 10SM CLR 12/M08 A3030 RMK AO2 SLP124 T01221078
Conditions at: KLXV (LEADVILLE , CO, US) observed 0053 UTC 21 September 2018
Temperature: 12.2°C (54°F)
Dewpoint: -7.8°C (18°F) [RH = 24%]
Pressure (altimeter): 30.30 inches Hg (1026.2 mb)
[Sea-level pressure: 1012.4 mb]
Winds: from the WNW (290 degrees) at 14 MPH (12 knots; 6.2 m/s)
Visibility: 10 or more miles (16+ km)
Ceiling: at least 12,000 feet AGL
Clouds: sky clear below 12,000 feet AGL
Weather: automated observation with no human augmentation;
there may or may not be significant weather present at this time